sensor_id;sensor_type;location;lat;lon;timestamp;P1;durP1;ratioP1;P2;durP2;ratioP2
23282;SDS011;11810;51.178;3.878;2023-04-26T00:01:47;12.35;;;6.63;;
23282;SDS011;11810;51.178;3.878;2023-04-26T00:04:12;13.80;;;6.68;;
23282;SDS011;11810;51.178;3.878;2023-04-26T00:06:59;14.10;;;6.30;;
23282;SDS011;11810;51.178;3.878;2023-04-26T00:09:25;13.45;;;6.28;;
23282;SDS011;11810;51.178;3.878;2023-04-26T00:11:51;20.42;;;6.97;;
23282;SDS011;11810;51.178;3.878;2023-04-26T00:14:17;19.48;;;7.63;;
23282;SDS011;11810;51.178;3.878;2023-04-26T00:16:43;14.70;;;7.22;;
23282;SDS011;11810;51.178;3.878;2023-04-26T00:19:09;26.75;;;10.10;;
23282;SDS011;11810;51.178;3.878;2023-04-26T00:21:36;17.85;;;8.02;;
23282;SDS011;11810;51.178;3.878;2023-04-26T00:26:02;19.77;;;9.02;;
23282;SDS011;11810;51.178;3.878;2023-04-26T00:28:28;23.55;;;9.50;;
23282;SDS011;11810;51.178;3.878;2023-04-26T00:35:04;16.77;;;8.13;;
23282;SDS011;11810;51.178;3.878;2023-04-26T00:37:30;13.52;;;7.45;;
23282;SDS011;11810;51.178;3.878;2023-04-26T00:43:04;13.68;;;7.43;;
23282;SDS011;11810;51.178;3.878;2023-04-26T00:45:30;15.93;;;7.55;;
23282;SDS011;11810;51.178;3.878;2023-04-26T00:47:57;16.52;;;7.38;;
23282;SDS011;11810;51.178;3.878;2023-04-26T00:50:25;17.58;;;7.60;;
23282;SDS011;11810;51.178;3.878;2023-04-26T00:52:51;16.27;;;8.27;;
23282;SDS011;11810;51.178;3.878;2023-04-26T00:57:07;13.30;;;7.53;;
23282;SDS011;11810;51.178;3.878;2023-04-26T00:59:34;16.77;;;8.23;;
23282;SDS011;11810;51.178;3.878;2023-04-26T01:02:03;14.55;;;7.45;;
23282;SDS011;11810;51.178;3.878;2023-04-26T01:04:29;16.25;;;7.80;;
23282;SDS011;11810;51.178;3.878;2023-04-26T01:06:55;15.02;;;7.45;;
23282;SDS011;11810;51.178;3.878;2023-04-26T01:09:22;13.23;;;7.60;;
23282;SDS011;11810;51.178;3.878;2023-04-26T01:11:48;14.60;;;7.72;;
23282;SDS011;11810;51.178;3.878;2023-04-26T01:14:16;21.88;;;8.02;;
23282;SDS011;11810;51.178;3.878;2023-04-26T01:18:08;19.80;;;8.07;;
23282;SDS011;11810;51.178;3.878;2023-04-26T01:20:35;14.10;;;7.45;;
23282;SDS011;11810;51.178;3.878;2023-04-26T01:23:02;12.57;;;6.78;;
23282;SDS011;11810;51.178;3.878;2023-04-26T01:25:28;12.57;;;7.13;;
23282;SDS011;11810;51.178;3.878;2023-04-26T01:27:54;12.27;;;6.43;;
23282;SDS011;11810;51.178;3.878;2023-04-26T01:32:27;11.50;;;6.50;;
23282;SDS011;11810;51.178;3.878;2023-04-26T01:34:53;16.88;;;7.55;;
23282;SDS011;11810;51.178;3.878;2023-04-26T01:37:19;19.73;;;7.25;;
23282;SDS011;11810;51.178;3.878;2023-04-26T01:39:45;14.13;;;6.78;;
23282;SDS011;11810;51.178;3.878;2023-04-26T01:42:11;12.23;;;6.80;;
23282;SDS011;11810;51.178;3.878;2023-04-26T01:45:11;18.17;;;7.40;;
23282;SDS011;11810;51.178;3.878;2023-04-26T01:47:37;13.68;;;6.78;;
23282;SDS011;11810;51.178;3.878;2023-04-26T01:50:03;12.23;;;6.90;;
23282;SDS011;11810;51.178;3.878;2023-04-26T01:52:29;17.13;;;7.18;;
23282;SDS011;11810;51.178;3.878;2023-04-26T01:56:12;10.63;;;6.38;;
23282;SDS011;11810;51.178;3.878;2023-04-26T01:58:38;13.27;;;7.05;;
23282;SDS011;11810;51.178;3.878;2023-04-26T02:02:13;14.00;;;7.07;;
23282;SDS011;11810;51.178;3.878;2023-04-26T02:04:42;12.85;;;7.95;;
23282;SDS011;11810;51.178;3.878;2023-04-26T02:09:14;16.45;;;8.65;;
23282;SDS011;11810;51.178;3.878;2023-04-26T02:11:40;17.23;;;8.15;;
23282;SDS011;11810;51.178;3.878;2023-04-26T02:14:06;20.63;;;8.27;;
23282;SDS011;11810;51.178;3.878;2023-04-26T02:16:32;17.88;;;9.48;;
23282;SDS011;11810;51.178;3.878;2023-04-26T02:18:58;17.83;;;8.02;;
23282;SDS011;11810;51.178;3.878;2023-04-26T02:21:24;13.60;;;7.43;;
23282;SDS011;11810;51.178;3.878;2023-04-26T02:23:51;16.45;;;8.05;;
23282;SDS011;11810;51.178;3.878;2023-04-26T02:26:17;12.00;;;7.63;;
23282;SDS011;11810;51.178;3.878;2023-04-26T02:29:16;14.95;;;7.13;;
23282;SDS011;11810;51.178;3.878;2023-04-26T02:31:42;13.73;;;7.88;;
23282;SDS011;11810;51.178;3.878;2023-04-26T02:34:08;15.80;;;7.63;;
23282;SDS011;11810;51.178;3.878;2023-04-26T02:36:34;17.27;;;8.00;;
23282;SDS011;11810;51.178;3.878;2023-04-26T02:39:00;14.70;;;7.75;;
23282;SDS011;11810;51.178;3.878;2023-04-26T02:41:26;14.80;;;7.68;;
23282;SDS011;11810;51.178;3.878;2023-04-26T02:44:18;14.90;;;7.47;;
23282;SDS011;11810;51.178;3.878;2023-04-26T02:46:44;15.25;;;8.90;;
23282;SDS011;11810;51.178;3.878;2023-04-26T02:49:09;20.17;;;8.80;;
23282;SDS011;11810;51.178;3.878;2023-04-26T02:51:35;21.23;;;8.75;;
23282;SDS011;11810;51.178;3.878;2023-04-26T02:54:01;13.00;;;8.13;;
23282;SDS011;11810;51.178;3.878;2023-04-26T02:56:27;19.88;;;9.10;;
23282;SDS011;11810;51.178;3.878;2023-04-26T02:58:53;14.15;;;9.13;;
23282;SDS011;11810;51.178;3.878;2023-04-26T03:01:19;13.77;;;8.60;;
23282;SDS011;11810;51.178;3.878;2023-04-26T03:03:46;20.17;;;10.32;;
23282;SDS011;11810;51.178;3.878;2023-04-26T03:06:11;18.15;;;10.25;;
23282;SDS011;11810;51.178;3.878;2023-04-26T03:08:37;18.98;;;9.18;;
23282;SDS011;11810;51.178;3.878;2023-04-26T03:13:22;22.33;;;9.95;;
23282;SDS011;11810;51.178;3.878;2023-04-26T03:15:48;17.73;;;9.63;;
23282;SDS011;11810;51.178;3.878;2023-04-26T03:18:16;22.42;;;9.93;;
23282;SDS011;11810;51.178;3.878;2023-04-26T03:20:42;13.82;;;9.25;;
23282;SDS011;11810;51.178;3.878;2023-04-26T03:23:10;18.25;;;8.95;;
23282;SDS011;11810;51.178;3.878;2023-04-26T03:25:36;13.13;;;8.38;;
23282;SDS011;11810;51.178;3.878;2023-04-26T03:28:02;17.60;;;9.82;;
23282;SDS011;11810;51.178;3.878;2023-04-26T03:30:28;15.10;;;8.50;;
23282;SDS011;11810;51.178;3.878;2023-04-26T03:34:24;18.25;;;8.63;;
23282;SDS011;11810;51.178;3.878;2023-04-26T03:36:51;16.70;;;8.82;;
23282;SDS011;11810;51.178;3.878;2023-04-26T03:39:17;14.63;;;8.27;;
23282;SDS011;11810;51.178;3.878;2023-04-26T03:41:43;18.83;;;8.68;;
23282;SDS011;11810;51.178;3.878;2023-04-26T03:44:09;16.85;;;9.18;;
23282;SDS011;11810;51.178;3.878;2023-04-26T03:46:35;14.80;;;8.43;;
23282;SDS011;11810;51.178;3.878;2023-04-26T03:49:01;17.95;;;8.50;;
23282;SDS011;11810;51.178;3.878;2023-04-26T03:53:37;21.30;;;9.88;;
23282;SDS011;11810;51.178;3.878;2023-04-26T03:56:04;24.85;;;9.80;;
23282;SDS011;11810;51.178;3.878;2023-04-26T03:58:30;20.88;;;10.05;;
23282;SDS011;11810;51.178;3.878;2023-04-26T04:00:56;22.70;;;9.85;;
23282;SDS011;11810;51.178;3.878;2023-04-26T04:04:13;20.10;;;9.13;;
23282;SDS011;11810;51.178;3.878;2023-04-26T04:06:39;20.17;;;9.57;;
23282;SDS011;11810;51.178;3.878;2023-04-26T04:09:05;17.17;;;8.55;;
23282;SDS011;11810;51.178;3.878;2023-04-26T04:11:30;18.52;;;9.27;;
23282;SDS011;11810;51.178;3.878;2023-04-26T04:13:57;20.00;;;9.38;;
23282;SDS011;11810;51.178;3.878;2023-04-26T04:16:23;15.55;;;9.00;;
23282;SDS011;11810;51.178;3.878;2023-04-26T04:18:49;20.63;;;9.38;;
23282;SDS011;11810;51.178;3.878;2023-04-26T04:21:15;20.60;;;9.70;;
23282;SDS011;11810;51.178;3.878;2023-04-26T04:23:41;18.85;;;11.15;;
23282;SDS011;11810;51.178;3.878;2023-04-26T04:26:08;26.45;;;11.70;;
23282;SDS011;11810;51.178;3.878;2023-04-26T04:28:37;19.05;;;11.20;;
23282;SDS011;11810;51.178;3.878;2023-04-26T04:31:05;21.23;;;10.60;;
23282;SDS011;11810;51.178;3.878;2023-04-26T04:34:33;23.33;;;11.13;;
23282;SDS011;11810;51.178;3.878;2023-04-26T04:37:00;19.80;;;10.05;;
23282;SDS011;11810;51.178;3.878;2023-04-26T04:39:26;15.55;;;8.95;;
23282;SDS011;11810;51.178;3.878;2023-04-26T04:41:52;23.02;;;15.52;;
23282;SDS011;11810;51.178;3.878;2023-04-26T04:44:18;29.60;;;21.45;;
23282;SDS011;11810;51.178;3.878;2023-04-26T04:46:44;28.13;;;16.88;;
23282;SDS011;11810;51.178;3.878;2023-04-26T04:49:11;27.10;;;15.23;;
23282;SDS011;11810;51.178;3.878;2023-04-26T04:51:37;25.85;;;12.20;;
23282;SDS011;11810;51.178;3.878;2023-04-26T04:54:10;23.92;;;11.38;;
23282;SDS011;11810;51.178;3.878;2023-04-26T04:56:40;33.03;;;11.48;;
23282;SDS011;11810;51.178;3.878;2023-04-26T04:59:06;25.38;;;10.35;;
23282;SDS011;11810;51.178;3.878;2023-04-26T05:02:36;23.58;;;10.65;;
23282;SDS011;11810;51.178;3.878;2023-04-26T05:05:02;19.83;;;10.57;;
23282;SDS011;11810;51.178;3.878;2023-04-26T05:07:30;19.83;;;9.18;;
23282;SDS011;11810;51.178;3.878;2023-04-26T05:09:56;17.10;;;8.68;;
23282;SDS011;11810;51.178;3.878;2023-04-26T05:12:22;17.13;;;8.68;;
23282;SDS011;11810;51.178;3.878;2023-04-26T05:14:48;14.48;;;8.82;;
23282;SDS011;11810;51.178;3.878;2023-04-26T05:17:14;14.70;;;8.43;;
23282;SDS011;11810;51.178;3.878;2023-04-26T05:19:40;18.85;;;8.30;;
23282;SDS011;11810;51.178;3.878;2023-04-26T05:22:06;15.50;;;9.10;;
23282;SDS011;11810;51.178;3.878;2023-04-26T05:24:32;19.58;;;9.20;;
23282;SDS011;11810;51.178;3.878;2023-04-26T05:26:58;17.30;;;9.57;;
23282;SDS011;11810;51.178;3.878;2023-04-26T05:29:28;15.77;;;9.00;;
23282;SDS011;11810;51.178;3.878;2023-04-26T05:31:55;19.10;;;8.95;;
23282;SDS011;11810;51.178;3.878;2023-04-26T05:34:23;20.05;;;9.30;;
23282;SDS011;11810;51.178;3.878;2023-04-26T05:36:50;21.02;;;12.13;;
23282;SDS011;11810;51.178;3.878;2023-04-26T05:39:16;17.27;;;10.90;;
23282;SDS011;11810;51.178;3.878;2023-04-26T05:41:44;24.40;;;11.13;;
23282;SDS011;11810;51.178;3.878;2023-04-26T05:44:11;21.42;;;11.57;;
23282;SDS011;11810;51.178;3.878;2023-04-26T05:46:40;22.30;;;12.38;;
23282;SDS011;11810;51.178;3.878;2023-04-26T05:50:42;29.80;;;12.82;;
23282;SDS011;11810;51.178;3.878;2023-04-26T05:53:08;27.13;;;13.85;;
23282;SDS011;11810;51.178;3.878;2023-04-26T05:55:33;23.23;;;12.02;;
23282;SDS011;11810;51.178;3.878;2023-04-26T05:57:59;30.30;;;13.80;;
23282;SDS011;11810;51.178;3.878;2023-04-26T06:00:25;19.42;;;10.80;;
23282;SDS011;11810;51.178;3.878;2023-04-26T06:02:51;20.33;;;11.15;;
23282;SDS011;11810;51.178;3.878;2023-04-26T06:05:18;22.45;;;10.98;;
23282;SDS011;11810;51.178;3.878;2023-04-26T06:07:44;21.83;;;10.50;;
23282;SDS011;11810;51.178;3.878;2023-04-26T06:10:10;18.48;;;10.13;;
23282;SDS011;11810;51.178;3.878;2023-04-26T06:12:37;26.83;;;11.35;;
23282;SDS011;11810;51.178;3.878;2023-04-26T06:15:03;21.55;;;10.73;;
23282;SDS011;11810;51.178;3.878;2023-04-26T06:17:30;24.02;;;10.75;;
23282;SDS011;11810;51.178;3.878;2023-04-26T06:19:55;37.50;;;18.10;;
23282;SDS011;11810;51.178;3.878;2023-04-26T06:22:21;36.17;;;21.90;;
23282;SDS011;11810;51.178;3.878;2023-04-26T06:24:48;28.25;;;16.30;;
23282;SDS011;11810;51.178;3.878;2023-04-26T06:27:14;23.48;;;14.25;;
23282;SDS011;11810;51.178;3.878;2023-04-26T06:29:40;22.80;;;13.90;;
23282;SDS011;11810;51.178;3.878;2023-04-26T06:32:07;23.88;;;12.15;;
23282;SDS011;11810;51.178;3.878;2023-04-26T06:34:33;22.85;;;11.90;;
23282;SDS011;11810;51.178;3.878;2023-04-26T06:37:01;25.65;;;11.45;;
23282;SDS011;11810;51.178;3.878;2023-04-26T06:39:27;19.23;;;9.88;;
23282;SDS011;11810;51.178;3.878;2023-04-26T06:41:53;18.63;;;10.40;;
23282;SDS011;11810;51.178;3.878;2023-04-26T06:44:18;16.58;;;10.20;;
23282;SDS011;11810;51.178;3.878;2023-04-26T06:46:44;17.63;;;9.43;;
23282;SDS011;11810;51.178;3.878;2023-04-26T06:49:10;15.43;;;9.82;;
23282;SDS011;11810;51.178;3.878;2023-04-26T06:51:36;16.65;;;9.52;;
23282;SDS011;11810;51.178;3.878;2023-04-26T06:54:02;17.17;;;8.75;;
23282;SDS011;11810;51.178;3.878;2023-04-26T06:56:28;15.48;;;8.48;;
23282;SDS011;11810;51.178;3.878;2023-04-26T07:01:25;19.75;;;8.93;;
23282;SDS011;11810;51.178;3.878;2023-04-26T07:03:55;16.75;;;9.25;;
23282;SDS011;11810;51.178;3.878;2023-04-26T07:06:24;16.95;;;9.18;;
23282;SDS011;11810;51.178;3.878;2023-04-26T07:08:51;18.58;;;9.35;;
23282;SDS011;11810;51.178;3.878;2023-04-26T07:11:17;20.48;;;10.48;;
23282;SDS011;11810;51.178;3.878;2023-04-26T07:13:43;19.35;;;10.77;;
23282;SDS011;11810;51.178;3.878;2023-04-26T07:16:09;23.30;;;10.82;;
23282;SDS011;11810;51.178;3.878;2023-04-26T07:18:35;24.27;;;11.35;;
23282;SDS011;11810;51.178;3.878;2023-04-26T07:21:01;15.85;;;10.50;;
23282;SDS011;11810;51.178;3.878;2023-04-26T07:23:28;23.95;;;10.73;;
23282;SDS011;11810;51.178;3.878;2023-04-26T07:25:54;18.60;;;10.80;;
23282;SDS011;11810;51.178;3.878;2023-04-26T07:28:20;22.05;;;10.63;;
23282;SDS011;11810;51.178;3.878;2023-04-26T07:30:45;22.15;;;11.27;;
23282;SDS011;11810;51.178;3.878;2023-04-26T07:33:11;19.08;;;10.13;;
23282;SDS011;11810;51.178;3.878;2023-04-26T07:35:37;22.60;;;12.05;;
23282;SDS011;11810;51.178;3.878;2023-04-26T07:38:03;20.63;;;10.05;;
23282;SDS011;11810;51.178;3.878;2023-04-26T07:40:29;53.38;;;28.48;;
23282;SDS011;11810;51.178;3.878;2023-04-26T07:42:55;88.18;;;49.83;;
23282;SDS011;11810;51.178;3.878;2023-04-26T07:45:21;38.90;;;20.02;;
23282;SDS011;11810;51.178;3.878;2023-04-26T07:47:47;34.10;;;14.98;;
23282;SDS011;11810;51.178;3.878;2023-04-26T07:50:14;22.52;;;11.90;;
23282;SDS011;11810;51.178;3.878;2023-04-26T07:52:40;22.15;;;10.80;;
23282;SDS011;11810;51.178;3.878;2023-04-26T07:55:07;25.55;;;11.15;;
23282;SDS011;11810;51.178;3.878;2023-04-26T07:57:33;19.95;;;12.07;;
23282;SDS011;11810;51.178;3.878;2023-04-26T07:59:59;24.30;;;10.45;;
23282;SDS011;11810;51.178;3.878;2023-04-26T08:02:25;19.73;;;9.90;;
23282;SDS011;11810;51.178;3.878;2023-04-26T08:04:51;21.60;;;8.77;;
23282;SDS011;11810;51.178;3.878;2023-04-26T08:07:19;21.77;;;8.85;;
23282;SDS011;11810;51.178;3.878;2023-04-26T08:09:46;16.55;;;8.68;;
23282;SDS011;11810;51.178;3.878;2023-04-26T08:12:13;14.38;;;7.82;;
23282;SDS011;11810;51.178;3.878;2023-04-26T08:14:39;13.93;;;6.13;;
23282;SDS011;11810;51.178;3.878;2023-04-26T08:17:06;12.07;;;4.28;;
23282;SDS011;11810;51.178;3.878;2023-04-26T08:19:35;11.32;;;4.53;;
23282;SDS011;11810;51.178;3.878;2023-04-26T08:22:02;14.70;;;6.68;;
23282;SDS011;11810;51.178;3.878;2023-04-26T08:24:28;18.75;;;6.60;;
23282;SDS011;11810;51.178;3.878;2023-04-26T08:26:54;21.90;;;6.13;;
23282;SDS011;11810;51.178;3.878;2023-04-26T08:29:21;14.02;;;6.75;;
23282;SDS011;11810;51.178;3.878;2023-04-26T08:31:47;11.68;;;5.53;;
23282;SDS011;11810;51.178;3.878;2023-04-26T08:34:13;13.23;;;5.70;;
23282;SDS011;11810;51.178;3.878;2023-04-26T08:36:39;10.27;;;4.63;;
23282;SDS011;11810;51.178;3.878;2023-04-26T08:39:06;11.00;;;5.10;;
23282;SDS011;11810;51.178;3.878;2023-04-26T08:41:35;14.95;;;5.53;;
23282;SDS011;11810;51.178;3.878;2023-04-26T08:44:05;10.02;;;4.57;;
23282;SDS011;11810;51.178;3.878;2023-04-26T08:46:36;13.80;;;5.45;;
23282;SDS011;11810;51.178;3.878;2023-04-26T08:52:02;12.27;;;5.18;;
23282;SDS011;11810;51.178;3.878;2023-04-26T08:54:31;9.90;;;4.53;;
23282;SDS011;11810;51.178;3.878;2023-04-26T08:57:00;13.55;;;4.60;;
23282;SDS011;11810;51.178;3.878;2023-04-26T08:59:28;12.30;;;4.88;;
23282;SDS011;11810;51.178;3.878;2023-04-26T09:01:58;7.63;;;4.22;;
23282;SDS011;11810;51.178;3.878;2023-04-26T09:04:27;15.07;;;4.43;;
23282;SDS011;11810;51.178;3.878;2023-04-26T09:06:53;14.45;;;3.78;;
23282;SDS011;11810;51.178;3.878;2023-04-26T09:09:24;7.00;;;3.45;;
23282;SDS011;11810;51.178;3.878;2023-04-26T09:12:07;12.70;;;4.30;;
23282;SDS011;11810;51.178;3.878;2023-04-26T09:14:33;13.57;;;4.78;;
23282;SDS011;11810;51.178;3.878;2023-04-26T09:16:59;13.60;;;4.90;;
23282;SDS011;11810;51.178;3.878;2023-04-26T09:19:35;10.68;;;4.78;;
23282;SDS011;11810;51.178;3.878;2023-04-26T09:22:03;7.63;;;4.40;;
23282;SDS011;11810;51.178;3.878;2023-04-26T09:25:03;12.23;;;4.53;;
23282;SDS011;11810;51.178;3.878;2023-04-26T09:27:43;13.90;;;4.65;;
23282;SDS011;11810;51.178;3.878;2023-04-26T09:35:36;13.73;;;4.57;;
23282;SDS011;11810;51.178;3.878;2023-04-26T09:38:13;13.50;;;4.55;;
23282;SDS011;11810;51.178;3.878;2023-04-26T09:43:11;7.90;;;4.63;;
23282;SDS011;11810;51.178;3.878;2023-04-26T09:45:42;8.07;;;5.15;;
23282;SDS011;11810;51.178;3.878;2023-04-26T09:48:17;8.02;;;4.43;;
23282;SDS011;11810;51.178;3.878;2023-04-26T09:50:54;13.68;;;5.20;;
23282;SDS011;11810;51.178;3.878;2023-04-26T09:55:53;13.50;;;5.55;;
23282;SDS011;11810;51.178;3.878;2023-04-26T09:58:20;15.73;;;5.53;;
23282;SDS011;11810;51.178;3.878;2023-04-26T10:00:49;14.35;;;4.78;;
23282;SDS011;11810;51.178;3.878;2023-04-26T10:03:17;10.20;;;4.53;;
23282;SDS011;11810;51.178;3.878;2023-04-26T10:05:44;8.82;;;5.15;;
23282;SDS011;11810;51.178;3.878;2023-04-26T10:08:11;11.48;;;4.72;;
23282;SDS011;11810;51.178;3.878;2023-04-26T10:10:38;8.82;;;4.45;;
23282;SDS011;11810;51.178;3.878;2023-04-26T10:13:05;15.45;;;5.13;;
23282;SDS011;11810;51.178;3.878;2023-04-26T10:15:31;11.77;;;5.20;;
23282;SDS011;11810;51.178;3.878;2023-04-26T10:17:57;18.77;;;5.05;;
23282;SDS011;11810;51.178;3.878;2023-04-26T10:20:25;8.68;;;5.00;;
23282;SDS011;11810;51.178;3.878;2023-04-26T10:22:56;12.70;;;5.32;;
23282;SDS011;11810;51.178;3.878;2023-04-26T10:25:36;8.07;;;4.47;;
23282;SDS011;11810;51.178;3.878;2023-04-26T10:28:03;9.20;;;4.95;;
23282;SDS011;11810;51.178;3.878;2023-04-26T10:30:29;12.48;;;4.60;;
23282;SDS011;11810;51.178;3.878;2023-04-26T10:35:23;11.23;;;5.30;;
23282;SDS011;11810;51.178;3.878;2023-04-26T10:45:41;9.20;;;4.63;;
23282;SDS011;11810;51.178;3.878;2023-04-26T10:48:18;7.38;;;3.90;;
23282;SDS011;11810;51.178;3.878;2023-04-26T10:53:31;6.35;;;4.25;;
23282;SDS011;11810;51.178;3.878;2023-04-26T10:58:39;6.25;;;4.50;;
23282;SDS011;11810;51.178;3.878;2023-04-26T11:03:37;6.57;;;3.58;;
23282;SDS011;11810;51.178;3.878;2023-04-26T11:06:06;8.13;;;3.92;;
23282;SDS011;11810;51.178;3.878;2023-04-26T11:08:34;7.40;;;3.63;;
23282;SDS011;11810;51.178;3.878;2023-04-26T11:13:29;9.10;;;4.05;;
23282;SDS011;11810;51.178;3.878;2023-04-26T11:15:59;7.22;;;3.95;;
23282;SDS011;11810;51.178;3.878;2023-04-26T11:18:30;8.20;;;4.13;;
23282;SDS011;11810;51.178;3.878;2023-04-26T11:20:57;11.13;;;3.90;;
23282;SDS011;11810;51.178;3.878;2023-04-26T11:23:24;8.05;;;3.28;;
23282;SDS011;11810;51.178;3.878;2023-04-26T11:25:52;8.93;;;4.07;;
23282;SDS011;11810;51.178;3.878;2023-04-26T11:28:21;9.00;;;4.32;;
23282;SDS011;11810;51.178;3.878;2023-04-26T11:30:48;8.95;;;3.85;;
23282;SDS011;11810;51.178;3.878;2023-04-26T11:33:15;9.77;;;3.83;;
23282;SDS011;11810;51.178;3.878;2023-04-26T11:35:50;8.73;;;3.38;;
23282;SDS011;11810;51.178;3.878;2023-04-26T11:38:20;9.32;;;4.03;;
23282;SDS011;11810;51.178;3.878;2023-04-26T11:40:56;12.90;;;4.28;;
23282;SDS011;11810;51.178;3.878;2023-04-26T11:43:33;9.13;;;3.90;;
23282;SDS011;11810;51.178;3.878;2023-04-26T11:46:00;10.33;;;3.73;;
23282;SDS011;11810;51.178;3.878;2023-04-26T11:48:27;8.57;;;3.85;;
23282;SDS011;11810;51.178;3.878;2023-04-26T11:50:57;13.55;;;4.45;;
23282;SDS011;11810;51.178;3.878;2023-04-26T11:53:24;6.38;;;3.88;;
23282;SDS011;11810;51.178;3.878;2023-04-26T11:56:04;9.43;;;3.75;;
23282;SDS011;11810;51.178;3.878;2023-04-26T11:58:46;8.45;;;4.13;;
23282;SDS011;11810;51.178;3.878;2023-04-26T12:01:23;7.63;;;4.18;;
23282;SDS011;11810;51.178;3.878;2023-04-26T12:03:50;10.20;;;4.07;;
23282;SDS011;11810;51.178;3.878;2023-04-26T12:06:17;11.77;;;4.43;;
23282;SDS011;11810;51.178;3.878;2023-04-26T12:08:50;7.95;;;4.72;;
23282;SDS011;11810;51.178;3.878;2023-04-26T12:11:17;10.52;;;4.00;;
23282;SDS011;11810;51.178;3.878;2023-04-26T12:13:44;8.68;;;3.95;;
23282;SDS011;11810;51.178;3.878;2023-04-26T12:16:11;7.70;;;4.43;;
23282;SDS011;11810;51.178;3.878;2023-04-26T12:18:38;8.70;;;4.32;;
23282;SDS011;11810;51.178;3.878;2023-04-26T12:21:05;8.13;;;4.15;;
23282;SDS011;11810;51.178;3.878;2023-04-26T12:23:38;8.30;;;4.25;;
23282;SDS011;11810;51.178;3.878;2023-04-26T12:26:05;8.60;;;4.20;;
23282;SDS011;11810;51.178;3.878;2023-04-26T12:28:31;8.45;;;4.55;;
23282;SDS011;11810;51.178;3.878;2023-04-26T12:30:57;9.75;;;4.13;;
23282;SDS011;11810;51.178;3.878;2023-04-26T12:33:25;8.23;;;4.20;;
23282;SDS011;11810;51.178;3.878;2023-04-26T12:35:51;7.60;;;3.95;;
23282;SDS011;11810;51.178;3.878;2023-04-26T12:38:17;6.88;;;4.25;;
23282;SDS011;11810;51.178;3.878;2023-04-26T12:40:44;9.95;;;4.38;;
23282;SDS011;11810;51.178;3.878;2023-04-26T12:43:10;8.45;;;4.70;;
23282;SDS011;11810;51.178;3.878;2023-04-26T12:45:36;7.80;;;4.32;;
23282;SDS011;11810;51.178;3.878;2023-04-26T12:48:02;9.30;;;4.72;;
23282;SDS011;11810;51.178;3.878;2023-04-26T12:50:29;9.55;;;4.43;;
23282;SDS011;11810;51.178;3.878;2023-04-26T12:52:55;8.68;;;4.68;;
23282;SDS011;11810;51.178;3.878;2023-04-26T12:55:21;9.05;;;4.88;;
23282;SDS011;11810;51.178;3.878;2023-04-26T12:57:47;15.98;;;9.18;;
23282;SDS011;11810;51.178;3.878;2023-04-26T13:00:14;9.70;;;5.00;;
23282;SDS011;11810;51.178;3.878;2023-04-26T13:02:41;8.50;;;4.60;;
23282;SDS011;11810;51.178;3.878;2023-04-26T13:05:08;7.70;;;4.40;;
23282;SDS011;11810;51.178;3.878;2023-04-26T13:07:35;8.80;;;4.60;;
23282;SDS011;11810;51.178;3.878;2023-04-26T13:10:03;8.77;;;5.28;;
23282;SDS011;11810;51.178;3.878;2023-04-26T13:12:30;8.77;;;5.03;;
23282;SDS011;11810;51.178;3.878;2023-04-26T13:14:56;10.88;;;4.90;;
23282;SDS011;11810;51.178;3.878;2023-04-26T13:17:23;7.18;;;4.85;;
23282;SDS011;11810;51.178;3.878;2023-04-26T13:19:50;9.13;;;4.90;;
23282;SDS011;11810;51.178;3.878;2023-04-26T13:22:17;7.07;;;4.68;;
23282;SDS011;11810;51.178;3.878;2023-04-26T13:24:43;8.35;;;5.20;;
23282;SDS011;11810;51.178;3.878;2023-04-26T13:27:10;10.77;;;4.47;;
23282;SDS011;11810;51.178;3.878;2023-04-26T13:29:37;8.25;;;4.57;;
23282;SDS011;11810;51.178;3.878;2023-04-26T13:32:03;13.98;;;5.47;;
23282;SDS011;11810;51.178;3.878;2023-04-26T13:34:29;10.85;;;5.22;;
23282;SDS011;11810;51.178;3.878;2023-04-26T13:36:55;9.73;;;5.43;;
23282;SDS011;11810;51.178;3.878;2023-04-26T13:39:25;9.23;;;4.90;;
23282;SDS011;11810;51.178;3.878;2023-04-26T13:41:55;8.05;;;4.88;;
23282;SDS011;11810;51.178;3.878;2023-04-26T13:44:23;10.30;;;5.72;;
23282;SDS011;11810;51.178;3.878;2023-04-26T13:46:49;7.95;;;5.95;;
23282;SDS011;11810;51.178;3.878;2023-04-26T13:49:16;9.43;;;5.03;;
23282;SDS011;11810;51.178;3.878;2023-04-26T13:51:42;13.05;;;4.75;;
23282;SDS011;11810;51.178;3.878;2023-04-26T13:54:08;9.98;;;5.30;;
23282;SDS011;11810;51.178;3.878;2023-04-26T13:56:35;9.38;;;5.07;;
23282;SDS011;11810;51.178;3.878;2023-04-26T13:59:01;10.10;;;4.85;;
23282;SDS011;11810;51.178;3.878;2023-04-26T14:01:29;9.68;;;5.03;;
23282;SDS011;11810;51.178;3.878;2023-04-26T14:03:57;10.32;;;5.07;;
23282;SDS011;11810;51.178;3.878;2023-04-26T14:06:23;9.70;;;5.43;;
23282;SDS011;11810;51.178;3.878;2023-04-26T14:08:49;12.35;;;5.65;;
23282;SDS011;11810;51.178;3.878;2023-04-26T14:11:15;11.60;;;5.68;;
23282;SDS011;11810;51.178;3.878;2023-04-26T14:13:42;9.02;;;5.53;;
23282;SDS011;11810;51.178;3.878;2023-04-26T14:16:08;9.25;;;4.80;;
23282;SDS011;11810;51.178;3.878;2023-04-26T14:18:35;10.45;;;5.75;;
23282;SDS011;11810;51.178;3.878;2023-04-26T14:21:01;9.77;;;4.75;;
23282;SDS011;11810;51.178;3.878;2023-04-26T14:23:28;12.52;;;5.35;;
23282;SDS011;11810;51.178;3.878;2023-04-26T14:25:54;10.32;;;5.53;;
23282;SDS011;11810;51.178;3.878;2023-04-26T14:28:20;11.15;;;6.05;;
23282;SDS011;11810;51.178;3.878;2023-04-26T14:30:46;12.20;;;5.70;;
23282;SDS011;11810;51.178;3.878;2023-04-26T14:33:12;15.35;;;6.75;;
23282;SDS011;11810;51.178;3.878;2023-04-26T14:35:38;8.82;;;6.40;;
23282;SDS011;11810;51.178;3.878;2023-04-26T14:38:05;8.50;;;5.40;;
23282;SDS011;11810;51.178;3.878;2023-04-26T14:40:31;9.18;;;5.43;;
23282;SDS011;11810;51.178;3.878;2023-04-26T14:42:57;11.25;;;5.43;;
23282;SDS011;11810;51.178;3.878;2023-04-26T14:45:23;11.35;;;5.68;;
23282;SDS011;11810;51.178;3.878;2023-04-26T14:47:49;9.57;;;4.93;;
23282;SDS011;11810;51.178;3.878;2023-04-26T14:50:15;10.93;;;5.05;;
23282;SDS011;11810;51.178;3.878;2023-04-26T14:52:43;11.38;;;5.45;;
23282;SDS011;11810;51.178;3.878;2023-04-26T14:55:15;10.45;;;5.00;;
23282;SDS011;11810;51.178;3.878;2023-04-26T14:57:42;8.65;;;5.07;;
23282;SDS011;11810;51.178;3.878;2023-04-26T15:00:09;10.07;;;5.57;;
23282;SDS011;11810;51.178;3.878;2023-04-26T15:02:39;8.23;;;5.35;;
23282;SDS011;11810;51.178;3.878;2023-04-26T15:05:05;7.93;;;5.30;;
23282;SDS011;11810;51.178;3.878;2023-04-26T15:07:32;9.05;;;5.10;;
23282;SDS011;11810;51.178;3.878;2023-04-26T15:09:58;10.30;;;5.65;;
23282;SDS011;11810;51.178;3.878;2023-04-26T15:12:25;10.35;;;5.40;;
23282;SDS011;11810;51.178;3.878;2023-04-26T15:14:52;10.65;;;5.15;;
23282;SDS011;11810;51.178;3.878;2023-04-26T15:17:18;8.35;;;5.15;;
23282;SDS011;11810;51.178;3.878;2023-04-26T15:19:44;8.70;;;5.15;;
23282;SDS011;11810;51.178;3.878;2023-04-26T15:22:10;8.95;;;5.47;;
23282;SDS011;11810;51.178;3.878;2023-04-26T15:24:36;12.30;;;5.60;;
23282;SDS011;11810;51.178;3.878;2023-04-26T15:27:02;7.50;;;5.05;;
23282;SDS011;11810;51.178;3.878;2023-04-26T15:29:32;8.63;;;5.35;;
23282;SDS011;11810;51.178;3.878;2023-04-26T15:31:59;9.77;;;5.97;;
23282;SDS011;11810;51.178;3.878;2023-04-26T15:34:25;9.77;;;6.78;;
23282;SDS011;11810;51.178;3.878;2023-04-26T15:36:54;10.93;;;6.55;;
23282;SDS011;11810;51.178;3.878;2023-04-26T15:39:24;10.40;;;5.70;;
23282;SDS011;11810;51.178;3.878;2023-04-26T15:41:50;9.50;;;5.65;;
23282;SDS011;11810;51.178;3.878;2023-04-26T15:44:17;10.02;;;5.57;;